This is the latest recevied weather packets stored in our database for station/object KO4ZGL-13. If no packets are shown the sender has not sent any weather packets the latest 1 day(s).
| Time | Temp. | Humidity | Pressure | Rain* | Wind** | Luminosity | Snow |
|---|---|---|---|---|---|---|---|
| 1778019504 | 25° C | 59% | 1016.3 hPa | 0 mm | 1.34 m/s, 6° | 228 W/m² | - |
| 1778019201 | 24.44° C | 60% | 1016.3 hPa | 0 mm | 1.34 m/s, 25° | 203 W/m² | - |
| 1778018898 | 25° C | 58% | 1016.3 hPa | 0 mm | 2.24 m/s, 18° | 252 W/m² | - |
| 1778018595 | 25° C | 58% | 1016.5 hPa | 0 mm | 1.34 m/s, 322° | 273 W/m² | - |
| 1778018293 | 25° C | 58% | 1016.4 hPa | 0 mm | 0.89 m/s, 299° | 253 W/m² | - |
| 1778017991 | 25.56° C | 58% | 1016.4 hPa | 0 mm | 0.45 m/s, 359° | 272 W/m² | - |
| 1778017689 | 25° C | 57% | 1016.4 hPa | 0 mm | 1.34 m/s, 337° | 289 W/m² | - |
| 1778017386 | 25.56° C | 57% | 1016.5 hPa | 0 mm | 0.89 m/s, 38° | 252 W/m² | - |
| 1778017083 | 25.56° C | 55% | 1016.6 hPa | 0 mm | 2.24 m/s, 343° | 300 W/m² | - |
| 1778016781 | 25.56° C | 53% | 1016.5 hPa | 0 mm | 1.34 m/s, 339° | 274 W/m² | - |
| 1778016476 | 25.56° C | 55% | 1016.6 hPa | 0 mm | 0.45 m/s, 345° | 255 W/m² | - |
| 1778016174 | 26.11° C | 52% | 1016.6 hPa | 0 mm | 0.45 m/s, 339° | 370 W/m² | - |
| 1778015870 | 26.67° C | 51% | 1016.3 hPa | 0 mm | 0.45 m/s, 338° | 364 W/m² | - |
| 1778015568 | 26.67° C | 51% | 1016.5 hPa | 0 mm | 0.45 m/s, 306° | 406 W/m² | - |
| 1778015264 | 26.67° C | 50% | 1016.7 hPa | 0 mm | 0.89 m/s, 335° | 432 W/m² | - |
| 1778014961 | 26.11° C | 51% | 1016.7 hPa | 0 mm | 0.89 m/s, 7° | 445 W/m² | - |
| 1778014658 | 26.67° C | 53% | 1016.4 hPa | 0 mm | 0.45 m/s, 308° | 455 W/m² | - |
| 1778014356 | 26.67° C | 53% | 1016.5 hPa | 0 mm | 1.34 m/s, 14° | 455 W/m² | - |
| 1778014052 | 26.67° C | 53% | 1016.4 hPa | 0 mm | 0 m/s | 340 W/m² | - |
| 1778013750 | 26.67° C | 54% | 1016.4 hPa | 0 mm | 1.34 m/s, 353° | 393 W/m² | - |
| 1778013447 | 26.67° C | 54% | 1016.5 hPa | 0 mm | 0.89 m/s, 222° | 441 W/m² | - |
| 1778013144 | 26.67° C | 54% | 1016.4 hPa | 0 mm | 1.79 m/s, 330° | 453 W/m² | - |
| 1778012840 | 27.22° C | 52% | 1016.4 hPa | 0 mm | 1.79 m/s, 339° | 544 W/m² | - |
| 1778012536 | 27.22° C | 53% | 1016.5 hPa | 0 mm | 2.24 m/s, 27° | 549 W/m² | - |
| 1778012233 | 26.67° C | 55% | 1016.6 hPa | 0 mm | 0.45 m/s, 321° | 551 W/m² | - |
* Rain latest hour (hover to see other rain measurements)
** Current wind speed in m/s (hover to see current wind gust speed)